Flight Track Log - Related Links

Times and Time Zones

All times are in EDT time to prevent confusion due to time zone crossing. See the VH-MKM flight status page for this flight to view local times or setup timezone preferences in your user account.

Time Position Orientation Groundspeed Altitude Reporting Facility
EDT Latitude Longitude Course Direction KTS MPH feet Rate Location/Type
Wed 09:29:48 PM -31.0438 150.2673 171° South 5,900  Level Aus ATC (Calculated)
Wed 09:30:48 PM -31.1240 150.2835 206° Southwest 5,900 90 Level Aus ATC (Calculated)
Wed 09:31:02 PM -31.1240 150.2835 206° Southwest 5,900 117 Level Aus ATC (Calculated)
Wed 09:33:00 PM -31.2081 150.3005 170° South  Level FlightAware Approximate
Wed 09:34:00 PM -31.2508 150.3091 170° South  Level FlightAware Approximate
Wed 09:34:14 PM -31.1262 150.2822 170° South 123 142 6,300  Level Aus ATC (RADAR)
Wed 09:34:49 PM -31.1471 150.2866 170° South 128 147 6,600 600 Climbing Aus ATC (RADAR)
Wed 09:35:44 PM -31.1803 150.2930 171° South 132 152 7,200 621 Climbing Aus ATC (RADAR)
Wed 09:37:14 PM -31.2297 150.3028 170° South 120 138 8,100 600 Climbing Aus ATC (RADAR)
Wed 09:37:44 PM -31.2458 150.3060 170° South 118 136 8,400 568 Climbing Aus ATC (RADAR)
Wed 09:38:49 PM -31.2795 150.3127 170° South 112 129 9,000 400 Climbing Aus ATC (RADAR)
Wed 09:39:29 PM -31.3025 150.3168 171° South 121 139 9,100 225 Climbing Aus ATC (RADAR)
Wed 09:40:09 PM -31.3280 150.3218 171° South 134 154 9,300 270 Climbing Aus ATC (RADAR)
Wed 09:40:58 PM -31.3616 150.3287 170° South 143 165 9,500 312 Climbing Aus ATC (RADAR)
Wed 09:42:43 PM -31.4304 150.3424 170° South 141 162 10,100 194 Climbing Aus ATC (RADAR)
Wed 09:43:33 PM -31.4653 150.3484 172° South 149 171 10,000 -60 Descending Aus ATC (RADAR)
Wed 09:44:23 PM -31.5035 150.3562 170° South 162 186 10,000  Level Aus ATC (RADAR)
Wed 09:44:58 PM -31.5292 150.3615 170° South 159 183 10,000  Level Aus ATC (RADAR)
Wed 09:45:43 PM -31.5611 150.3676 171° South 155 178 10,000  Level Aus ATC (RADAR)
Wed 09:46:13 PM -31.5823 150.3719 170° South 153 176 10,000  Level Aus ATC (RADAR)
Wed 09:47:23 PM -31.6311 150.3815 170° South 152 175 10,000  Level Aus ATC (RADAR)
Wed 09:48:03 PM -31.6591 150.3870 170° South 151 174 10,000  Level Aus ATC (RADAR)
Wed 09:48:53 PM -31.6945 150.3940 170° South 153 176 10,000  Level Aus ATC (RADAR)
Wed 09:49:38 PM -31.7267 150.4010 169° South 153 176 10,000  Level Aus ATC (RADAR)
Wed 09:50:13 PM -31.7500 150.4056 171° South 143 165 10,000  Level Aus ATC (RADAR)
Wed 09:51:03 PM -31.7827 150.4118 171° South 140 161 10,000  Level Aus ATC (RADAR)
Wed 09:52:42 PM -31.8478 150.4248 170° South 143 165 10,000  Level Aus ATC (RADAR)
Wed 09:53:42 PM -31.8897 150.4330 170° South 152 175 10,000  Level Aus ATC (RADAR)
Wed 09:54:27 PM -31.9208 150.4394 170° South 147 169 10,000  Level Aus ATC (RADAR)
Wed 09:55:07 PM -31.9472 150.4447 170° South 142 163 10,000  Level Aus ATC (RADAR)
Wed 09:55:52 PM -31.9762 150.4504 171° South 139 160 10,000  Level Aus ATC (RADAR)
Wed 09:57:37 PM -32.0454 150.4643 170° South 145 167 10,000  Level Aus ATC (RADAR)
Wed 09:58:27 PM -32.0784 150.4706 171° South 142 163 10,000  Level Aus ATC (RADAR)
Wed 09:59:02 PM -32.1024 150.4757 170° South 147 169 10,000  Level Aus ATC (RADAR)
Wed 09:59:52 PM -32.1374 150.4832 170° South 152 175 10,000  Level Aus ATC (RADAR)
Wed 10:00:27 PM -32.1618 150.4884 170° South 151 174 10,000  Level Aus ATC (RADAR)
Wed 10:01:11 PM -32.1931 150.4942 171° South 150 173 10,000  Level Aus ATC (RADAR)
Wed 10:03:01 PM -32.2681 150.5096 170° South 147 169 10,000  Level Aus ATC (RADAR)
Wed 10:03:56 PM -32.3054 150.5169 171° South 146 168 10,000  Level Aus ATC (RADAR)
Wed 10:04:36 PM -32.3319 150.5221 171° South 142 163 10,000  Level Aus ATC (RADAR)
Wed 10:05:11 PM -32.3553 150.5269 170° South 143 165 10,000  Level Aus ATC (RADAR)
Wed 10:05:56 PM -32.3844 150.5325 171° South 139 160 10,000  Level Aus ATC (RADAR)
Wed 10:06:26 PM -32.4032 150.5367 169° South 135 155 10,000  Level Aus ATC (RADAR)
Wed 10:07:01 PM -32.4258 150.5410 171° South 139 160 10,000  Level Aus ATC (RADAR)
Wed 10:08:41 PM -32.4904 150.5543 170° South 135 155 10,000 -37 Level Aus ATC (RADAR)
Wed 10:09:43 PM -32.5311 150.5617 171° South 148 170 9,900 -60 Descending Aus ATC (RADAR)
Wed 10:10:21 PM -32.5582 150.5677 169° South 151 174 9,900  Level Aus ATC (RADAR)
Wed 10:10:55 PM -32.5818 150.5727 170° South 145 167 9,900  Level Aus ATC (RADAR)
Wed 10:11:40 PM -32.6125 150.5788 170° South 148 170 9,900  Level Aus ATC (RADAR)
Wed 10:12:10 PM -32.6340 150.5830 171° South 154 177 9,900  Level Aus ATC (RADAR)
Wed 10:13:40 PM -32.7014 150.5969 170° South 160 184 9,900  Level Aus ATC (RADAR)
Wed 10:14:35 PM -32.7401 150.6050 170° South 151 174 9,900  Level Aus ATC (RADAR)
Wed 10:15:18 PM -32.7683 150.6097 172° South 148 170 9,900  Level Aus ATC (RADAR)
Wed 10:15:55 PM -32.7944 150.6156 169° South 147 169 9,900  Level Aus ATC (RADAR)
Wed 10:16:40 PM -32.8254 150.6221 170° South 149 171 9,900  Level Aus ATC (RADAR)
Wed 10:18:35 PM -32.9053 150.6377 171° South 152 175 9,900  Level Aus ATC (RADAR)
Wed 10:19:40 PM -32.9494 150.6470 170° South 143 165 9,900 -59 Level Aus ATC (RADAR)
Wed 10:20:17 PM -32.9746 150.6513 172° South 150 173 9,800 -240 Descending Aus ATC (RADAR)
Wed 10:20:55 PM -33.0025 150.6580 169° South 156 180 9,600 -289 Descending Aus ATC (RADAR)
Wed 10:21:40 PM -33.0370 150.6647 171° South 164 189 9,400 -318 Descending Aus ATC (RADAR)
Wed 10:23:07 PM -33.1019 150.6774 171° South 159 183 8,900 -353 Descending Aus ATC (RADAR)
Wed 10:23:39 PM -33.1255 150.6834 168° South 152 175 8,700 -358 Descending Aus ATC (RADAR)
Wed 10:24:14 PM -33.1508 150.6878 172° South 153 176 8,500 -429 Descending Aus ATC (RADAR)
Wed 10:24:49 PM -33.1773 150.6937 169° South 161 185 8,200 -375 Descending Aus ATC (RADAR)
Wed 10:25:34 PM -33.2114 150.7010 170° South 162 186 8,000 -375 Descending Aus ATC (RADAR)
Wed 10:26:09 PM -33.2376 150.7059 171° South 160 184 7,700 -424 Descending Aus ATC (RADAR)
Wed 10:26:59 PM -33.2746 150.7134 170° South 158 182 7,400 -341 Descending Aus ATC (RADAR)
Wed 10:27:37 PM -33.3032 150.7185 172° South 166 191 7,200 -449 Descending Aus ATC (RADAR)
Wed 10:28:46 PM -33.3585 150.7302 170° South 173 199 6,600 -500 Descending Aus ATC (RADAR)
Wed 10:29:49 PM -33.4069 150.7405 170° South 165 190 6,100 -490 Descending Aus ATC (RADAR)
Wed 10:30:24 PM -33.4341 150.7457 171° South 165 190 5,800 -500 Descending Aus ATC (RADAR)
Wed 10:31:01 PM -33.4632 150.7517 170° South 170 196 5,500 -483 Descending Aus ATC (RADAR)
Wed 10:31:51 PM -33.5012 150.7596 170° South 164 189 5,100 -545 Descending Aus ATC (RADAR)
Wed 10:32:51 PM -33.5465 150.7691 170° South 165 190 4,500 -567 Descending Aus ATC (RADAR)
Wed 10:33:58 PM -33.5982 150.7798 170° South 162 186 3,900 -567 Descending Aus ATC (RADAR)
Wed 10:34:58 PM -33.6400 150.8016 156° South 159 183 3,300 -556 Descending Aus ATC (RADAR)
Wed 10:35:46 PM -33.6716 150.8164 159° South 154 177 2,900 -494 Descending Aus ATC (RADAR)
Wed 10:36:23 PM -33.6961 150.8309 154° Southeast 151 174 2,600 -286 Descending Aus ATC (RADAR)
Wed 10:37:10 PM -33.7255 150.8502 151° Southeast 151 174 2,500 -129 Descending Aus ATC (RADAR)
Wed 10:38:43 PM -33.7849 150.8841 155° Southeast 154 177 2,300 -204 Descending Aus ATC (RADAR)
Wed 10:39:37 PM -33.8226 150.9067 154° Southeast 160 184 2,000 -196 Descending Aus ATC (RADAR)
Wed 10:40:15 PM -33.8427 150.9300 136° Southeast 158 182 2,000 -329 Level Aus ATC (RADAR)
Wed 10:40:50 PM -33.8610 150.9536 133° Southeast 162 186 1,600 -429 Descending Aus ATC (RADAR)
Wed 10:41:25 PM -33.8797 150.9759 135° Southeast 155 178 1,500 -73 Descending Aus ATC (RADAR)
Wed 10:42:12 PM -33.9001 150.9981 138° Southeast 118 136 1,500 -386 Level Aus ATC (RADAR)
Wed 10:43:45 PM -33.9334 151.0191 152° Southeast 92 106 600 -514 Descending Aus ATC (RADAR)
Wed 10:44:32 PM -33.9297 151.0033 286° West 62 71 300 -6 Descending Aus ATC (RADAR)
Wed 11:15:53 PM -33.9210 150.9880 298° West 200 Descending FlightAware ADS-B
Wed 11:16:09 PM -33.9170 150.9820 309° West 92 106 400 833 Climbing FlightAware ADS-B
Wed 11:16:29 PM -33.9120 150.9730 304° West 87 100 700 612 Climbing FlightAware ADS-B
Wed 11:16:58 PM -33.9070 150.9610 297° West 94 108 900 367 Climbing FlightAware ADS-B
Wed 11:17:18 PM -33.9010 150.9510 306° West 105 121 1,000 267 Climbing FlightAware ADS-B
Wed 11:17:43 PM -33.8950 150.9380 299° West 114 131 1,100 533 Climbing FlightAware ADS-B
Wed 11:18:03 PM -33.8910 150.9270 294° West 113 130 1,400 960 Climbing FlightAware ADS-B
Wed 11:18:08 PM -33.8900 150.9230 287° West 106 122 1,500 900 Climbing FlightAware ADS-B
Wed 11:18:23 PM -33.8900 150.9160 270° West 104 120 1,700 923 Climbing FlightAware ADS-B
Wed 11:18:34 PM -33.8900 150.9090 270° West 107 123 1,900 1,000 Climbing FlightAware ADS-B
Wed 11:18:59 PM -33.8900 150.8930 270° West 104 120 2,300 667 Climbing FlightAware ADS-B
Wed 11:19:19 PM -33.8890 150.8820 276° West 105 121 2,400  Climbing FlightAware ADS-B
Wed 11:19:50 PM -33.8890 150.8650 270° West 117 135 2,300 203 Descending FlightAware ADS-B
Wed 11:20:18 PM -33.8870 150.8440 277° West 111 128 2,600 462 Climbing FlightAware ADS-B
Wed 11:20:29 PM -33.8870 150.8380 270° West 119 137 2,600  Level FlightAware ADS-B
Wed 11:20:53 PM -33.8860 150.8220 274° West 130 150 2,600 353 Level FlightAware ADS-B
Wed 11:21:03 PM -33.8850 150.8140 279° West 117 135 2,800  Climbing FlightAware ADS-B
Wed 11:21:23 PM -33.8850 150.8010 270° West 135 155 2,600 -273 Descending FlightAware ADS-B
Wed 11:21:47 PM -33.8840 150.7850 274° West 127 146 2,600  Level FlightAware ADS-B
Wed 11:22:10 PM -33.8820 150.7670 278° West 115 132 2,600 273 Level FlightAware ADS-B
Wed 11:22:31 PM -33.8820 150.7540 270° West 117 135 2,800 439 Climbing FlightAware ADS-B
Wed 11:22:51 PM -33.8810 150.7410 275° West 125 144 2,900 522 Climbing FlightAware ADS-B
Wed 11:23:17 PM -33.8810 150.7240 270° West 116 133 3,200 462 Climbing FlightAware ADS-B
Wed 11:23:56 PM -33.8820 150.6970 267° West 121 139 3,400 367 Climbing FlightAware ADS-B
Wed 11:24:06 PM -33.8820 150.6920 270° West 122 140 3,500 811 Climbing FlightAware ADS-B
Wed 11:24:33 PM -33.8830 150.6710 267° West 110 127 3,900 571 Climbing FlightAware ADS-B
Wed 11:24:48 PM -33.8830 150.6620 270° West 116 133 3,900 343 Level FlightAware ADS-B
Wed 11:25:08 PM -33.8840 150.6490 265° West 110 127 4,100 500 Climbing FlightAware ADS-B
Wed 11:25:48 PM -33.8830 150.6230 273° West 113 130 4,400 321 Climbing FlightAware ADS-B
Wed 11:26:04 PM -33.8810 150.6140 285° West 115 132 4,400  Level FlightAware ADS-B
Wed 11:26:18 PM -33.8790 150.6050 285° West 114 131 4,400 353 Level FlightAware ADS-B
Wed 11:26:38 PM -33.8760 150.5940 288° West 111 128 4,600 265 Climbing FlightAware ADS-B
Wed 11:27:26 PM -33.8700 150.5700 287° West 113 130 4,700 125 Climbing FlightAware ADS-B

Login

Don't have an account? Register now (free) for customized features, flight alerts, and more!